Guadeloupe : La 68e édition du Tour Cycliste International

Alain Paulmin Dimanche 05 août 2018

2ième étape  : 2ième tronçon : Basse-Terre / Gourbeyre 6 km, Boris Carène de la Team CCD explose le chrono 14'45"60 et s'installe à la 2ième place au général.
Particularités :
Sommet Gourbeyre 6 km

TOUR DE LA GUADELOUPE 2018 68è édition - U.C.I Classe ME 2.2 Du 3 Août 2018 Au 12 Août 2018
PORT DES MAILLOTS POUR LA PROCHAINE ETAPE
A l'issue de l'étape n° 2 (Tronçon 1)  - Maillot Dos J Nom du coureur Nom de l'équipe

Jaune 5 GUICHARD Mickael TEAM PRO IMMO NICOLAS ROUX Général individuel au temps REGION GUADELOUPE
Bleu 25 RAMOTHE Cedric KARUKERA ASSAINISSEMENT PDL Général individuel aux points CONSEIL DEPARTEMENTAL DE LA GU
Pois rouges 62 MILAN Diego INTEJA DCTG énéral Meilleur Grimpeur CORSAIR International
Blanc 11 GRANIGAN Noah CCB FOUNDATION - SICLERI XG énéral Meilleur Jeune CAISSE D’EPARGNE
Fushia 234 SYLVESTRE Yolan SELECTION MARTINIQUEG énéral Combiné GUADELOUPE POLE CARAIBES
Orange 2 THOMASSON Nicolas TEAM PRO IMMO NICOLAS ROUX Général Points Chauds EDF AGIR PLUS
Vert 144 DIAZ ESPITIA José Léonel TEAM CCDG énéral Combativité AIR ANTILLES

CLASSEMENT DE L'ETAPE
Résultats officiels Etape n°2 (Tronçon 2) - Troncon 2 - CLM I : BASSE TERRE - GOUD imanche 05 Août 2018
Nombre de km : 6,000
Comité Régional Cycliste de Guadeloupe
24,410 km/heureM oyenne du vainqueur :


146 10076908856 CARENE Boris TEAM CCD 00:14:45:601
125 10027697524 SALINAS DUQUE Jhonathan UNI SPORT LAMENTINOIS 00:15:14:30 00:00:28:702
144 10010983212 DIAZ ESPITIA José Léonel TEAM CCD 00:15:29:95 00:00:44:353
124 10081045605 RODRIGUEZ GALINDO Mick UNI SPORT LAMENTINOIS 00:15:30:47 00:00:44:874
221 10002879870 NAVA Jhon GWADA BIKERS 118 00:15:34:82 00:00:49:225
1 10005890510 FOURNET FAYARD Sebastien TEAM PRO IMMO NICOLAS ROUX 00:15:41:72 00:00:56:126
65 10011231873 GUERRERO BONITA Pablo INTEJA DCT 00:15:44:36 00:00:58:767
61 10054655945 MANCEBO Francisco INTEJA DCT 00:15:49:78 00:01:04:188
145 10081059446 SANCHEZ ANZOLA Edwin TEAM CCD 00:15:51:79 00:01:06:199
5 10010100007 GUICHARD Mickael TEAM PRO IMMO NICOLAS ROUX 00:16:04:89 00:01:19:291 0
245 10002226940 LANGLOIS Bruno AIR ANTILLES BARBADOS 00:16:06:98 00:01:21:381 1
203 10042724844 RIVERA GUERRERO Ever Alexander VELO CLUB DE GRAND CASE 00:16:07:91 00:01:22:311 2
62 10003120047 MILAN Diego INTEJA DCT 00:16:12:37 00:01:26:771 3
6 10014768232 CHASSAGNE Thomas TEAM PRO IMMO NICOLAS ROUX 00:16:12:41 00:01:26:811 4
204 10010167604 PARRA SUAREZ Hernan Dario VELO CLUB DE GRAND CASE 00:16:21:93 00:01:36:331 5
94 10080990536 MEDINA Raphael VELO DU CENTRE ET DE LA CAR 00:16:22:45 00:01:36:851 6
236 10006527676 ROSEAU Willy SELECTION MARTINIQUE 00:16:25:31 00:01:39:711 7
4 10012064659 ALMEIDA Pierre TEAM PRO IMMO NICOLAS ROUX 00:16:25:53 00:01:39:931 8
161 10005566770 SABLON Luis TEAM NICOLAS DUBOIS - VCC 00:16:27:36 00:01:41:761 9
175 10015343360 LOCATIN CEDRIC EXCELSIOR 00:16:44:17 00:01:58:572 0
141 10013164496 CHEVALIER MARONI Damien TEAM CCD 00:16:45:02 00:01:59:422 1
3 10009571052 BONNET Pierre TEAM PRO IMMO NICOLAS ROUX 00:16:45:72 00:02:00:122 2
231 10007446550 EUSTACHE Cédric SELECTION MARTINIQUE 00:16:51:21 00:02:05:612 3
171 10012701526 BLONDIN Grégory EXCELSIOR 00:16:55:46 00:02:09:862 4
22 10015343663 X LAVIOLETTE Loic KARUKERA ASSAINISSEMENT PD 00:16:59:56 00:02:13:962 5
115 10027669333 X PHAETON Collins CSCA PROPRETE 2000 00:16:59:79 00:02:14:192 6
264 10015290315 X JASSERAND Valentin BOURG EN BRESS 00:17:11:24 00:02:25:642 7
133 10026612639 KWIATKOWSKI Grzegorz Jan UNION VELOCIPEDIQUE DE MARI 00:17:12:37 00:02:26:772 8
202 10002250683 TURPIN Ludovic VELO CLUB DE GRAND CASE 00:17:23:28 00:02:37:682 9
232 10015342754 STANISLAS Mickaël SELECTION MARTINIQUE 00:17:28:47 00:02:42:873 0
256 10008725334 MARCEL Fröse TEAM EMBRACE THE WORLD 00:17:35:66 00:02:50:063 1
234 10010163863 SYLVESTRE Yolan SELECTION MARTINIQUE 00:17:36:22 00:02:50:623 2
51 10007531729 BAROLIN Keran UNION VELOCIPEDIQUE DU NORD 00:17:36:34 00:02:50:743 3
263 10025835326 LEMLER Tony BOURG EN BRESS 00:17:40:11 00:02:54:513 4
2 10011940781 THOMASSON Nicolas TEAM PRO IMMO NICOLAS ROUX 00:17:41:40 00:02:55:803 5
192 10014075892 TARANNE Teddy USR VELO STPA 00:17:42:76 00:02:57:163 6
165 10026332652 X GENE Meving TEAM NICOLAS DUBOIS - VCC 00:17:42:86 00:02:57:263 7
241 10010643914 X KELLY Joshua AIR ANTILLES BARBADOS 00:17:43:07 00:02:57:473 8
223 10015344572 KARIOUA Kévin GWADA BIKERS 118 00:17:45:51 00:02:59:913 9
233 10014076603 RAGOT Thierry SELECTION MARTINIQUE 00:17:47:78 00:03:02:184 0
11 10009353612 X GRANIGAN Noah CCB FOUNDATION - SICLERI 00:17:51:77 00:03:06:174 1
182 10025073773 THEOPHILE Laury JEUNESSE CYCLISTE DES ABYM 00:17:59:86 00:03:14:264 2
111 10016211108 X GERAN Ronald CSCA PROPRETE 2000 00:18:00:09 00:03:14:494 3
93 10013556035 BARNY Naïddjy VELO DU CENTRE ET DE LA CAR 00:18:02:08 00:03:16:484 4
52 10012700314 LEGRAND Carl UNION VELOCIPEDIQUE DU NORD 00:18:03:54 00:03:17:944 5
142 10064540548 MARTINEZ URENA Jorge Luis TEAM CCD 00:18:04:42 00:03:18:824 6
261 10015726411 X MOINE Quentin BOURG EN BRESS 00:18:05:45 00:03:19:854 7
126 10014665572 PRUNEAU Jordy UNI SPORT LAMENTINOIS 00:18:10:08 00:03:24:484 8
26 10014666279 VINETOT Romain KARUKERA ASSAINISSEMENT PD 00:18:12:02 00:03:26:424 9
162 10074497701 VARGAS Freddy TEAM NICOLAS DUBOIS - VCC 00:18:13:25 00:03:27:655 0
252 10014542304 KRUSCHEWSKI Fabian TEAM EMBRACE THE WORLD 00:18:21:37 00:03:35:775 1
196 10025421458 JEANNE Wladimir USR VELO STPA 00:18:23:45 00:03:37:855 2
193 10027662562 LAROCHELLE Stephane USR VELO STPA 00:18:24:11 00:03:38:515 3
235 10026351042 LARGITTE COPPET Kévin SELECTION MARTINIQUE 00:18:25:59 00:03:39:995 4
123 10014075690 ERRIN Grégory UNI SPORT LAMENTINOIS 00:18:26:56 00:03:40:965 5
222 10011791039 FUENTES Yorman GWADA BIKERS 118 00:18:29:25 00:03:43:655 6
64 10007419975 AGUIRRE Jose INTEJA DCT 00:18:30:32 00:03:44:725 7
33 10010164065 NACTO Jordan VELO CLUB SAINTANNAIS 00:18:33:03 00:03:47:435 8
181 10005551414 LANDRE Teddy JEUNESSE CYCLISTE DES ABYM 00:18:33:55 00:03:47:955 9
183 10026597380 X DELOUMEAUX Jérémy JEUNESSE CYCLISTE DES ABYM 00:18:33:82 00:03:48:226 0
21 10014665471 LUTIN Larry KARUKERA ASSAINISSEMENT PD 00:18:34:08 00:03:48:486 1
251 10014115504 X PESCHGES Marcel TEAM EMBRACE THE WORLD 00:18:35:14 00:03:49:546 2
113 10027596682 X LARGITTE Jeiël CSCA PROPRETE 2000 00:18:35:94 00:03:50:346 3
201 10007366122 CURIER Olivier VELO CLUB DE GRAND CASE 00:18:38:63 00:03:53:036 4
195 10006050558 ATTAUD Frédéric USR VELO STPA 00:18:40:92 00:03:55:326 5
91 10007902551 LANCLUME Jules VELO DU CENTRE ET DE LA CAR 00:18:41:70 00:03:56:106 6
32 10013166318 DURO Kelian VELO CLUB SAINTANNAIS 00:18:41:85 00:03:56:256 7
174 10014075488 DAMASE Jean-Louis EXCELSIOR 00:18:42:64 00:03:57:046 8
13 10064521754 X HUMPHREYS Thomas CCB FOUNDATION - SICLERI 00:18:44:59 00:03:58:996 9
14 10015484214 COLLINS Patrick CCB FOUNDATION - SICLERI 00:18:46:56 00:04:00:967 0
151 10052756260 SUARES Gilles ASSOCIATION CYCLISTE DU LEV 00:18:48:53 00:04:02:937 1
76 10012048592 ROULON Fwanswajino RAYON D ARGENT 00:18:48:78 00:04:03:187 2
24 10014666077 JOACHIM Steevy KARUKERA ASSAINISSEMENT PD 00:18:52:35 00:04:06:757 3
23 10016210300 X MAGDELEINE Melvin KARUKERA ASSAINISSEMENT PD 00:18:54:11 00:04:08:517 4
116 10073678049 ROUSSEAU Giovanny CSCA PROPRETE 2000 00:18:54:53 00:04:08:937 5
122 10065631392 CLARICO Mickael UNI SPORT LAMENTINOIS 00:18:58:62 00:04:13:027 6
35 10027319123 X DURO Nicolas VELO CLUB SAINTANNAIS 00:19:00:00 00:04:14:407 7
121 10011208736 BOYEAU Fendley UNI SPORT LAMENTINOIS 00:19:00:74 00:04:15:147 8
153 10026153810 DORLIN Henryck ASSOCIATION CYCLISTE DU LEV 00:19:00:76 00:04:15:167 9
186 10016211310 X LORQUIN Kénan JEUNESSE CYCLISTE DES ABYM 00:19:06:03 00:04:20:438 0
75 10014664764 LEREMON Gimmy RAYON D ARGENT 00:19:08:23 00:04:22:638 1
63 10002689308 SARABIA Ignacio INTEJA DCT 00:19:09:49 00:04:23:898 2
164 10006566375 CORNELIE Fabrice TEAM NICOLAS DUBOIS - VCC 00:19:10:60 00:04:25:008 3
166 10014666178 RELMY Widgy TEAM NICOLAS DUBOIS - VCC 00:19:11:79 00:04:26:198 4
246 10019931108 WYMAN Christopher AIR ANTILLES BARBADOS 00:19:11:99 00:04:26:398 5
143 10004591316 HAMLET Freddy TEAM CCD 00:19:12:45 00:04:26:858 6
176 10004666084 THEOBALD Frédéric EXCELSIOR 00:19:12:97 00:04:27:378 7
191 10012045865 ALIDOR Adrien USR VELO STPA 00:19:13:61 00:04:28:018 8
173 10016210195 X BORDEE Gaël EXCELSIOR 00:19:17:17 00:04:31:578 9
253 10046184916 DUFFNER Stephan TEAM EMBRACE THE WORLD 00:19:24:94 00:04:39:349 0
184 10016210906 X DABRION Rogan JEUNESSE CYCLISTE DES ABYM 00:19:25:50 00:04:39:909 1
254 10011805284 NIESING T imo TEAM EMBRACE THE WORLD 00:19:28:39 00:04:42:799 2
66 10009778994 CUETO Juan José INTEJA DCT 00:19:28:53 00:04:42:939 3
72 10028013075 GIBLACA Fabrice RAYON D ARGENT 00:19:30:53 00:04:44:939 4
185 10016209690 X LOUISOR Alrick JEUNESSE CYCLISTE DES ABYM 00:19:30:89 00:04:45:299 5
36 10026878882 X POLIPHEME Anthony VELO CLUB SAINTANNAIS 00:19:50:70 00:05:05:109 6
152 10027296790 X AJINCAS Lucas ASSOCIATION CYCLISTE DU LEV 00:19:52:18 00:05:06:589 7
172 10025492691 X DAMAS Anthony EXCELSIOR 00:19:53:65 00:05:08:059 8
114 10073814152 MINY Régis CSCA PROPRETE 2000 00:20:23:14 00:05:37:549 9
95 10016209791 X LEOGANE Feliscyo VELO DU CENTRE ET DE LA CAR 00:20:23:39 00:05:37:791 00
255 10036476327 MENIA Stefan TEAM EMBRACE THE WORLD 00:20:30:30 00:05:44:701 01
12 10049918002 X MEAD-VANCORT Jonah CCB FOUNDATION - SICLERI 00:20:42:20 00:05:56:601 02
112 10014075791 JUDITH Marvin CSCA PROPRETE 2000 00:20:50:45 00:06:04:851 03
25 10006566274 RAMOTHE Cedric KARUKERA ASSAINISSEMENT PD 00:20:53:22 00:06:07:621
112 10014075791 JUDITH Marvin CSCA PROPRETE 2000 00:20:50:45 00:06:04:851 03
25 10006566274 RAMOTHE Cedric KARUKERA ASSAINISSEMENT PD 00:20:53:22 00:06:07:621 04
74 10008149192 MARIMOUTOU Jean Marie RAYON D ARGENT 00:20:56:57 00:06:10:971 05
132 10081729655 NERE Nicolas UNION VELOCIPEDIQUE DE MARI 00:21:00:34 00:06:14:741 06
205 10008960558 ROUSSEAU Jayson VELO CLUB DE GRAND CASE 00:21:05:38 00:06:19:781 07
225 10080377820 MOUNSAMY Dino GWADA BIKERS 118 00:21:13:39 00:06:27:791 08
53 10013555126 MATOU Kenny UNION VELOCIPEDIQUE DU NORD 00:21:56:23 00:07:10:631 09
224 10077330202 TURPIN Olivier GWADA BIKERS 118 00:22:35:41 00:07:49:811 10

CLASSEMENT GENERAL INDIVIDUEL AU TEMPS A l'issue de l'étape n° 2 (Tronçon 2) (05/08/18) Sponsor : REGION GUADELOUPE
Résultats officiels Moy/Km : 41,384 km/h
TOUR DE LA GUADELOUPE 2018 68è édition - U.C.I Classe ME 2.2 275,000 km parcourus


1 5 GUICHARD Mickael TEAM PRO IMMO NICOLAS ROUX 10010100007 06:38:42:00 __:__:__
2 146 CARENE Boris TEAM CCD 10076908856 06:39:33:00 00:00:51
3 125 SALINAS DUQUE Jhonathan UNI SPORT LAMENTINOIS 10027697524 06:40:02:00 00:01:20
4 144 DIAZ ESPITIA José Léonel TEAM CCD 10010983212 06:40:10:00 00:01:28
5 221 NAVA Jhon GWADA BIKERS 118 10002879870 06:40:29:00 00:01:47
6 1 FOURNET FAYARD Sebastien TEAM PRO IMMO NICOLAS ROUX 10005890510 06:40:36:00 00:01:54
7 61 MANCEBO Francisco INTEJA DCT 10054655945 06:40:37:00 00:01:55
8 124 RODRIGUEZ GALINDO Mick UNI SPORT LAMENTINOIS 10081045605 06:40:39:00 00:01:57
9 65 GUERRERO BONITA Pablo INTEJA DCT 10011231873 06:40:41:00 00:01:59
10 62 MILAN Diego INTEJA DCT 10003120047 06:40:51:00 00:02:09
11 6 CHASSAGNE Thomas TEAM PRO IMMO NICOLAS ROUX 10014768232 06:41:00:00 00:02:18
12 245 LANGLOIS Bruno AIR ANTILLES BARBADOS 10002226940 06:41:00:00 00:02:18
13 203 RIVERA GUERRERO Ever Alexander VELO CLUB DE GRAND CASE 10042724844 06:41:02:00 00:02:20
14 236 ROSEAU Willy SELECTION MARTINIQUE 10006527676 06:41:09:00 00:02:27
15 4 ALMEIDA Pierre TEAM PRO IMMO NICOLAS ROUX 10012064659 06:41:13:00 00:02:31
16 161 SABLON Luis TEAM NICOLAS DUBOIS - VCC 10005566770 06:41:15:00 00:02:33
17 204 PARRA SUAREZ Hernan Dario VELO CLUB DE GRAND CASE 10010167604 06:41:20:00 00:02:38
18 145 SANCHEZ ANZOLA Edwin TEAM CCD 10081059446 06:41:57:00 00:03:15
19 234 SYLVESTRE Yolan SELECTION MARTINIQUE 10010163863 06:42:16:00 00:03:34
20 11 X GRANIGAN Noah CCB FOUNDATION - SICLERI 10009353612 06:42:46:00 00:04:04
21 171 BLONDIN Grégory EXCELSIOR 10012701526 06:42:54:00 00:04:12
22 94 MEDINA Raphael VELO DU CENTRE ET DE LA CAR 10080990536 06:43:29:00 00:04:47
23 115 X PHAETON Collins CSCA PROPRETE 2000 10027669333 06:43:29:00 00:04:47
24 22 X LAVIOLETTE Loic KARUKERA ASSAINISSEMENT P 10015343663 06:43:44:00 00:05:02
25 231 EUSTACHE Cédric SELECTION MARTINIQUE 10007446550 06:43:46:00 00:05:04
26 223 KARIOUA Kévin GWADA BIKERS 118 10015344572 06:44:06:00 00:05:24
27 133 KWIATKOWSKI Grzegorz Jan UNION VELOCIPEDIQUE DE MAR 10026612639 06:44:32:00 00:05:50
28 111 X GERAN Ronald CSCA PROPRETE 2000 10016211108 06:44:46:00 00:06:04
29 162 VARGAS Freddy TEAM NICOLAS DUBOIS - VCC 10074497701 06:44:58:00 00:06:16
30 232 STANISLAS Mickaël SELECTION MARTINIQUE 10015342754 06:45:08:00 00:06:26
31 175 LOCATIN CEDRIC EXCELSIOR 10015343360 06:45:40:00 00:06:58
32 141 CHEVALIER MARONI Damien TEAM CCD 10013164496 06:46:07:00 00:07:25
33 222 FUENTES Yorman GWADA BIKERS 118 10011791039 06:46:09:00 00:07:27
34 2 THOMASSON Nicolas TEAM PRO IMMO NICOLAS ROUX 10011940781 06:46:31:00 00:07:49
35 192 TARANNE Teddy USR VELO STPA 10014075892 06:46:43:00 00:08:01
36 51 BAROLIN Keran UNION VELOCIPEDIQUE DU NOR 10007531729 06:46:46:00 00:08:04
37 52 LEGRAND Carl UNION VELOCIPEDIQUE DU NOR 10012700314 06:46:51:00 00:08:09
38 182 THEOPHILE Laury JEUNESSE CYCLISTE DES ABY 10025073773 06:46:55:00 00:08:13
39 142 MARTINEZ URENA Jorge Luis TEAM CCD 10064540548 06:47:05:00 00:08:23
40 126 PRUNEAU Jordy UNI SPORT LAMENTINOIS 10014665572 06:47:06:00 00:08:24
41 261 X MOINE Quentin BOURG EN BRESS 10015726411 06:47:15:00 00:08:33
42 123 ERRIN Grégory UNI SPORT LAMENTINOIS 10014075690 06:47:22:00 00:08:40
43 3 BONNET Pierre TEAM PRO IMMO NICOLAS ROUX 10009571052 06:47:32:00 00:08:50
44 21 LUTIN Larry KARUKERA ASSAINISSEMENT P 10014665471 06:48:19:00 00:09:37
45 183 X DELOUMEAUX Jérémy JEUNESSE CYCLISTE DES ABY 10026597380 06:48:42:00 00:10:00
46 202 TURPIN Ludovic VELO CLUB DE GRAND CASE 10002250683 06:49:09:00 00:10:27
47 93 BARNY Naïddjy VELO DU CENTRE ET DE LA CAR 10013556035 06:49:35:00 00:10:53
48 193 LAROCHELLE Stephane USR VELO STPA 10027662562 06:49:55:00 00:11:13
49 252 KRUSCHEWSKI Fabian TEAM EMBRACE THE WORLD 10014542304 06:49:59:00 00:11:17
50 63 SARABIA Ignacio INTEJA DCT 10002689308 06:49:59:00 00:11:17
51 26 VINETOT Romain KARUKERA ASSAINISSEMENT P 10014666279 06:50:06:00 00:11:24
52 174 DAMASE Jean-Louis EXCELSIOR 10014075488 06:50:09:00 00:11:27
53 76 ROULON Fwanswajino RAYON D ARGENT 10012048592 06:50:10:00 00:11:28
54 32 DURO Kelian VELO CLUB SAINTANNAIS 10013166318 06:50:15:00 00:11:33
55 151 SUARES Gilles ASSOCIATION CYCLISTE DU LEV 10052756260 06:50:15:00 00:11:33
56 121 BOYEAU Fendley UNI SPORT LAMENTINOIS 10011208736 06:50:20:00 00:11:38
57 116 ROUSSEAU Giovanny CSCA PROPRETE 2000 10073678049 06:50:20:00 00:11:38
58 201 CURIER Olivier VELO CLUB DE GRAND CASE 10007366122 06:50:34:00 00:11:52
59 176 THEOBALD Frédéric EXCELSIOR 10004666084 06:50:43:00 00:12:01
60 64 AGUIRRE Jose INTEJA DCT 10007419975 06:50:46:00 00:12:04
61 23 X MAGDELEINE Melvin KARUKERA ASSAINISSEMENT P 10016210300 06:50:48:00 00:12:06
62 191 ALIDOR Adrien USR VELO STPA 10012045865 06:51:06:00 00:12:24
63 164 CORNELIE Fabrice TEAM NICOLAS DUBOIS - VCC 10006566375 06:51:46:00 00:13:04
64 25 RAMOTHE Cedric KARUKERA ASSAINISSEMENT P 10006566274 06:51:58:00 00:13:16
65 253 DUFFNER Stephan TEAM EMBRACE THE WORLD 10046184916 06:55:16:00 00:16:34
66 185 X LOUISOR Alrick JEUNESSE CYCLISTE DES ABY 10016209690 06:55:37:00 00:16:55
67 112 JUDITH Marvin CSCA PROPRETE 2000 10014075791 06:58:16:00 00:19:34
68 95 X LEOGANE Feliscyo VELO DU CENTRE ET DE LA CAR 10016209791 06:58:49:00 00:20:07
69 264 X JASSERAND Valentin BOURG EN BRESS 10015290315 06:59:14:00 00:20:32
70 14 COLLINS Patrick CCB FOUNDATION - SICLERI 10015484214 07:01:05:00 00:22:23
71 241 X KELLY Joshua AIR ANTILLES BARBADOS 10010643914 07:03:27:00 00:24:45
72 233 RAGOT Thierry SELECTION MARTINIQUE 10014076603 07:03:29:00 00:24:47
73 91 LANCLUME Jules VELO DU CENTRE ET DE LA CAR 10007902551 07:03:38:00 00:24:56
74 33 NACTO Jordan VELO CLUB SAINTANNAIS 10010164065 07:04:05:00 00:25:23
75 196 JEANNE Wladimir USR VELO STPA 10025421458 07:04:08:00 00:25:26
76 235 LARGITTE COPPET Kévin SELECTION MARTINIQUE 10026351042 07:04:09:00 00:25:27
77 173 X BORDEE Gaël EXCELSIOR 10016210195 07:04:17:00 00:25:35
78 24 JOACHIM Steevy KARUKERA ASSAINISSEMENT P 10014666077 07:04:34:00 00:25:52
79 181 LANDRE Teddy JEUNESSE CYCLISTE DES ABY 10005551414 07:04:41:00 00:25:59
80 122 CLARICO Mickael UNI SPORT LAMENTINOIS 10065631392 07:04:42:00 00:26:00
81 75 LEREMON Gimmy RAYON D ARGENT 10014664764 07:05:03:00 00:26:21
82 35 X DURO Nicolas VELO CLUB SAINTANNAIS 10027319123 07:05:03:00 00:26:21
83 72 GIBLACA Fabrice RAYON D ARGENT 10028013075 07:05:13:00 00:26:31
84 143 HAMLET Freddy TEAM CCD 10004591316 07:05:20:00 00:26:38
85 152 X AJINCAS Lucas ASSOCIATION CYCLISTE DU LEV 10027296790 07:05:36:00 00:26:54
86 256 MARCEL Fröse TEAM EMBRACE THE WORLD 10008725334 07:07:21:00 00:28:39
87 186 X LORQUIN Kénan JEUNESSE CYCLISTE DES ABY 10016211310 07:07:25:00 00:28:43
88 184 X DABRION Rogan JEUNESSE CYCLISTE DES ABY 10016210906 07:08:14:00 00:29:32
89 251 X PESCHGES Marcel TEAM EMBRACE THE WORLD 10014115504 07:08:55:00 00:30:13
90 254 NIESING T imo TEAM EMBRACE THE WORLD1 0011805284 07:09:32:00 00:30:50
91 166 RELMY Widgy TEAM NICOLAS DUBOIS - VCC 10014666178 07:09:45:00 00:31:03
92 66 CUETO Juan José INTEJA DCT 10009778994 07:09:47:00 00:31:05
93 172 X DAMAS Anthony EXCELSIOR 10025492691 07:10:01:00 00:31:19
94 114 MINY Régis CSCA PROPRETE 2000 10073814152 07:11:04:00 00:32:22
95 255 MENIA Stefan TEAM EMBRACE THE WORLD 10036476327 07:12:03:00 00:33:21
96 53 MATOU Kenny UNION VELOCIPEDIQUE DU NOR 10013555126 07:12:21:00 00:33:39
97 165 X GENE Meving TEAM NICOLAS DUBOIS - VCC 10026332652 07:13:51:00 00:35:09
98 205 ROUSSEAU Jayson VELO CLUB DE GRAND CASE 10008960558 07:15:11:00 00:36:29
99 246 WYMAN Christopher AIR ANTILLES BARBADOS 10019931108 07:21:36:00 00:42:54
100 113 X LARGITTE Jeiël CSCA PROPRETE 2000 10027596682 07:21:58:00 00:43:16
101 74 MARIMOUTOU Jean Marie RAYON D ARGENT 10008149192 07:23:21:00 00:44:39
102 195 ATTAUD Frédéric USR VELO STPA 10006050558 07:23:38:00 00:44:56
103 13 X HUMPHREYS Thomas CCB FOUNDATION - SICLERI 10064521754 07:25:08:00 00:46:26
104 36 X POLIPHEME Anthony VELO CLUB SAINTANNAIS 10026878882 07:26:01:00 00:47:19
105 225 MOUNSAMY Dino GWADA BIKERS 118 10080377820 07:27:25:00 00:48:43
106 132 NERE Nicolas UNION VELOCIPEDIQUE DE MAR 10081729655 07:27:55:00 00:49:13
107 263 LEMLER Tony BOURG EN BRESS 10025835326 07:28:01:00 00:49:19
108 153 DORLIN Henryck ASSOCIATION CYCLISTE DU LEV 10026153810 07:28:31:00 00:49:49
109 224 TURPIN Olivier GWADA BIKERS 118 10077330202 07:28:47:00 00:50:05
110 12 X MEAD-VANCORT Jonah CCB FOUNDATION - SICLERI 10049918002 07:38:55:00 01:00:13